Terminal Aerodrome Forecast
Issued by NWS Brownsville, TX

Home | Current Version | Previous Version | Text Only | Print | Product List | Glossary On
Versions: 1 2 3 4 5 6 7 8 9 10 11 12 13 14 15 16 17 18 19 20 21
000
FTUS44 KBRO 112300
TAFBRO
TAF
KBRO 112320Z 1200/1224 13013G18KT P6SM FEW030
     FM120100 13005KT P6SM BKN250
     FM121000 14003KT P6SM SCT020
     FM121400 12012KT P6SM FEW050=

USA.gov is the U.S. government's official web portal to all federal, state and local government web resources and services.